Time;durP1;ratioP1;P1;durP2;ratioP2;P2;SDS_P1;SDS_P2;PMS_P1;PMS_P2;Temp;Humidity;BMP_temperature;BMP_pressure;BME280_temperature;BME280_humidity;BME280_pressure;Samples;Min_cycle;Max_cycle;Signal;HPM_P1;HPM_P2
2023/06/21 00:01:40;;;;;;;14.80;11.90;;;21.50;99.90;;;;;;5095761;28;20583;-79
2023/06/21 00:04:08;;;;;;;15.83;12.50;;;21.50;99.90;;;;;;5077200;28;20579;-78
2023/06/21 00:06:37;;;;;;;16.20;12.87;;;21.50;99.90;;;;;;5077482;28;20252;-79
2023/06/21 00:09:04;;;;;;;16.37;12.53;;;21.50;99.90;;;;;;5077392;28;20275;-79
2023/06/21 00:11:32;;;;;;;16.13;12.80;;;21.50;99.90;;;;;;5060444;28;20213;-79
2023/06/21 00:13:59;;;;;;;16.57;13.00;;;21.50;99.90;;;;;;5095459;28;20200;-79
2023/06/21 00:16:26;;;;;;;15.60;12.63;;;21.50;99.90;;;;;;5095108;28;20205;-79
2023/06/21 00:18:53;;;;;;;16.73;12.33;;;21.40;99.90;;;;;;5076456;28;20225;-79
2023/06/21 00:21:19;;;;;;;16.70;12.23;;;21.40;99.90;;;;;;5076914;28;20245;-79
2023/06/21 00:23:46;;;;;;;17.43;13.80;;;21.30;99.90;;;;;;5060404;28;20189;-80
2023/06/21 00:26:13;;;;;;;17.87;13.23;;;21.20;99.90;;;;;;5076634;28;20224;-80
2023/06/21 00:28:40;;;;;;;19.07;14.17;;;21.20;99.90;;;;;;5095122;28;20292;-80
2023/06/21 00:31:10;;;;;;;18.40;14.63;;;21.10;99.90;;;;;;5095175;28;20237;-79
2023/06/21 00:33:38;;;;;;;16.93;14.17;;;21.10;99.90;;;;;;5077090;28;20186;-80
2023/06/21 00:36:06;;;;;;;19.23;14.57;;;21.00;99.90;;;;;;5095017;28;20221;-79
2023/06/21 00:38:34;;;;;;;19.90;14.50;;;21.00;99.90;;;;;;5059804;28;20637;-78
2023/06/21 00:41:05;;;;;;;19.37;15.00;;;21.00;99.90;;;;;;5076706;28;20495;-79
2023/06/21 00:43:32;;;;;;;19.63;15.23;;;20.90;99.90;;;;;;5076375;28;20795;-79
2023/06/21 00:46:00;;;;;;;19.43;15.77;;;20.90;99.90;;;;;;5059627;28;20263;-79
2023/06/21 00:48:28;;;;;;;19.43;15.00;;;20.80;99.90;;;;;;5094882;28;20185;-79
2023/06/21 00:50:56;;;;;;;19.00;14.77;;;20.80;99.90;;;;;;5094371;28;20213;-79
2023/06/21 00:53:27;;;;;;;19.90;15.37;;;20.60;99.90;;;;;;5077204;28;20232;-79
2023/06/21 00:55:58;;;;;;;19.47;15.50;;;20.60;99.90;;;;;;5076336;28;20225;-79
2023/06/21 00:58:25;;;;;;;21.67;16.73;;;20.50;99.90;;;;;;5076202;28;20185;-79
2023/06/21 01:00:52;;;;;;;21.50;15.77;;;20.40;99.90;;;;;;5076318;28;20313;-79
2023/06/21 01:03:20;;;;;;;20.57;16.07;;;20.30;99.90;;;;;;5076020;28;20718;-79
2023/06/21 01:06:31;;;;;;;19.63;15.97;;;20.30;99.90;;;;;;5094359;28;20220;-78
2023/06/21 01:09:13;;;;;;;20.87;16.10;;;20.20;99.90;;;;;;5073257;28;20229;-78
2023/06/21 01:11:49;;;;;;;24.03;16.73;;;20.20;99.90;;;;;;5093970;28;20230;-78
2023/06/21 01:14:16;;;;;;;21.13;17.07;;;20.10;99.90;;;;;;5075950;28;20189;-78
2023/06/21 01:16:45;;;;;;;22.47;17.17;;;20.00;99.90;;;;;;5059434;28;20251;-77
2023/06/21 01:19:48;;;;;;;21.93;16.53;;;20.00;99.90;;;;;;5059229;28;20288;-79
2023/06/21 01:22:21;;;;;;;25.80;18.53;;;20.00;99.90;;;;;;5075752;28;20207;-79
2023/06/21 01:25:06;;;;;;;22.33;17.40;;;19.90;99.90;;;;;;5075762;28;20205;-79
2023/06/21 01:27:53;;;;;;;22.63;17.73;;;19.80;99.90;;;;;;5075867;28;20281;-79
2023/06/21 01:30:21;;;;;;;24.67;18.30;;;19.80;99.90;;;;;;5074938;28;20263;-79
2023/06/21 01:32:53;;;;;;;25.13;18.13;;;19.80;99.90;;;;;;5075459;28;20233;-79
2023/06/21 01:35:22;;;;;;;22.87;17.53;;;19.80;99.90;;;;;;5075343;28;20245;-78
2023/06/21 01:37:50;;;;;;;23.60;17.57;;;19.70;99.90;;;;;;5075329;28;20239;-79
2023/06/21 01:40:17;;;;;;;31.83;17.87;;;19.80;99.90;;;;;;5058868;28;20245;-79
2023/06/21 01:42:44;;;;;;;23.37;16.87;;;19.70;99.90;;;;;;5075635;28;20201;-78
2023/06/21 01:45:11;;;;;;;20.07;15.77;;;19.70;99.90;;;;;;5058883;28;20229;-79
2023/06/21 01:47:40;;;;;;;19.27;15.77;;;19.70;99.90;;;;;;5074973;28;20571;-79
2023/06/21 01:50:08;;;;;;;21.10;15.80;;;19.70;99.90;;;;;;5058811;28;20221;-79
2023/06/21 01:52:35;;;;;;;17.83;14.83;;;19.70;99.90;;;;;;5093219;28;20196;-78
2023/06/21 01:55:05;;;;;;;19.77;14.73;;;19.60;99.90;;;;;;5074945;28;20235;-78
2023/06/21 01:57:36;;;;;;;17.47;14.03;;;19.70;99.90;;;;;;5058106;28;20217;-79
2023/06/21 02:00:17;;;;;;;17.57;14.13;;;19.80;99.90;;;;;;5075025;28;20675;-78
2023/06/21 02:02:50;;;;;;;19.53;14.57;;;19.80;99.90;;;;;;5075208;28;20615;-78
2023/06/21 02:05:19;;;;;;;21.23;14.67;;;19.80;99.90;;;;;;5092993;28;20262;-78
2023/06/21 02:07:47;;;;;;;18.27;14.60;;;19.80;99.90;;;;;;5093017;28;20612;-78
2023/06/21 02:10:15;;;;;;;17.17;14.07;;;19.80;99.90;;;;;;5074929;28;20324;-79
2023/06/21 02:12:42;;;;;;;17.53;14.23;;;19.80;99.90;;;;;;5074842;28;20200;-79
2023/06/21 02:15:11;;;;;;;20.20;14.00;;;19.80;99.90;;;;;;5074632;28;20308;-81
2023/06/21 02:17:38;;;;;;;16.53;13.80;;;19.90;99.90;;;;;;5074668;28;20284;-78
2023/06/21 02:20:11;;;;;;;19.17;14.57;;;19.90;99.90;;;;;;5058145;28;20217;-79
2023/06/21 02:22:43;;;;;;;18.63;14.60;;;19.80;99.90;;;;;;5074537;28;20201;-79
2023/06/21 02:25:11;;;;;;;19.10;13.60;;;19.80;99.90;;;;;;5058086;28;20225;-80
2023/06/21 02:27:39;;;;;;;17.80;14.23;;;19.80;99.90;;;;;;5093143;28;20200;-80
2023/06/21 02:30:10;;;;;;;18.50;15.03;;;19.80;99.90;;;;;;5074676;28;20225;-78
2023/06/21 02:32:36;;;;;;;18.97;14.90;;;19.80;99.90;;;;;;5074828;28;20197;-79
2023/06/21 02:35:05;;;;;;;18.80;14.63;;;19.80;99.90;;;;;;5074293;28;20313;-77
2023/06/21 02:37:32;;;;;;;18.27;14.23;;;19.80;99.90;;;;;;5074745;28;20189;-80
2023/06/21 02:39:59;;;;;;;17.93;14.50;;;19.80;99.90;;;;;;5074492;28;20217;-79
2023/06/21 02:42:27;;;;;;;17.47;14.13;;;19.70;99.90;;;;;;5092528;28;20272;-80
2023/06/21 02:44:54;;;;;;;18.67;14.60;;;19.70;99.90;;;;;;5074492;28;20206;-80
2023/06/21 02:47:21;;;;;;;17.80;14.80;;;19.70;99.90;;;;;;5092622;28;20710;-80
2023/06/21 02:49:48;;;;;;;19.43;15.20;;;19.70;99.90;;;;;;5074589;28;20324;-80
2023/06/21 02:52:15;;;;;;;19.07;15.67;;;19.70;99.90;;;;;;5074404;28;20282;-80
2023/06/21 02:54:42;;;;;;;20.30;15.73;;;19.70;99.90;;;;;;5074210;28;20208;-80
2023/06/21 02:57:08;;;;;;;19.73;15.67;;;19.60;99.90;;;;;;5074405;28;20229;-78
2023/06/21 02:59:36;;;;;;;18.07;15.80;;;19.60;99.90;;;;;;5074385;28;20644;-80
2023/06/21 03:02:03;;;;;;;20.23;16.50;;;19.60;99.90;;;;;;5057687;28;20288;-80
2023/06/21 03:04:30;;;;;;;19.27;16.17;;;19.60;99.90;;;;;;5074209;28;20239;-81
2023/06/21 03:07:01;;;;;;;20.37;16.27;;;19.50;99.90;;;;;;5057871;28;20279;-80
2023/06/21 03:09:28;;;;;;;21.23;16.73;;;19.50;99.90;;;;;;5074325;28;20209;-80
2023/06/21 03:11:55;;;;;;;21.17;16.97;;;19.40;99.90;;;;;;5092625;28;20503;-80
2023/06/21 03:14:22;;;;;;;24.10;18.10;;;19.40;99.90;;;;;;5074269;28;20190;-80
2023/06/21 03:16:52;;;;;;;22.20;17.70;;;19.40;99.90;;;;;;5074078;28;20247;-80
2023/06/21 03:19:19;;;;;;;26.20;18.70;;;19.40;99.90;;;;;;5092228;28;20215;-81
2023/06/21 03:21:46;;;;;;;24.20;18.63;;;19.40;99.90;;;;;;5092215;28;20259;-80
2023/06/21 03:24:13;;;;;;;23.57;18.00;;;19.40;99.90;;;;;;5092336;28;20189;-80
2023/06/21 03:26:40;;;;;;;25.20;20.47;;;19.40;99.90;;;;;;5074058;28;20221;-81
2023/06/21 03:29:08;;;;;;;25.13;20.20;;;19.40;99.90;;;;;;5074096;28;20713;-80
2023/06/21 03:31:35;;;;;;;29.57;20.50;;;19.40;99.90;;;;;;5073994;28;20298;-80
2023/06/21 03:34:02;;;;;;;25.43;20.40;;;19.40;99.90;;;;;;5092649;28;20277;-80
2023/06/21 03:36:29;;;;;;;27.63;20.77;;;19.40;99.90;;;;;;5057524;28;20217;-80
2023/06/21 03:38:56;;;;;;;26.37;21.33;;;19.40;99.90;;;;;;5074480;28;20281;-80
2023/06/21 03:41:23;;;;;;;28.30;21.33;;;19.40;99.90;;;;;;5057493;28;20774;-81
2023/06/21 03:43:50;;;;;;;28.80;21.00;;;19.40;99.90;;;;;;5074127;28;20224;-80
2023/06/21 03:46:18;;;;;;;26.77;20.90;;;19.50;99.90;;;;;;5073781;28;20269;-80
2023/06/21 03:48:45;;;;;;;32.13;20.97;;;19.50;99.90;;;;;;5057376;28;20289;-80
2023/06/21 03:51:12;;;;;;;28.63;21.50;;;19.60;99.90;;;;;;5073870;28;20260;-79
2023/06/21 03:53:39;;;;;;;27.03;21.00;;;19.70;99.90;;;;;;5073976;28;20284;-80
2023/06/21 03:56:06;;;;;;;26.53;20.77;;;19.80;99.90;;;;;;5095674;28;20210;-80
2023/06/21 03:58:33;;;;;;;25.27;20.27;;;19.80;99.90;;;;;;5077555;28;20595;-80
2023/06/21 04:00:59;;;;;;;27.33;20.73;;;19.90;99.90;;;;;;5077492;28;20279;-80
2023/06/21 04:03:27;;;;;;;28.57;19.50;;;19.90;99.90;;;;;;5095663;28;20213;-80
2023/06/21 04:05:54;;;;;;;26.17;19.67;;;20.00;99.90;;;;;;5077368;28;20210;-80
2023/06/21 04:08:20;;;;;;;27.10;19.83;;;20.20;99.90;;;;;;5095731;28;20638;-79
2023/06/21 04:10:47;;;;;;;24.80;19.43;;;20.20;99.90;;;;;;5077739;28;20252;-80
2023/06/21 04:13:14;;;;;;;24.73;18.70;;;20.20;99.90;;;;;;5077182;28;20247;-80
2023/06/21 04:15:41;;;;;;;26.00;18.20;;;20.40;99.90;;;;;;5077306;28;20317;-81
2023/06/21 04:18:08;;;;;;;23.97;18.30;;;20.50;99.90;;;;;;5077067;28;20199;-79
2023/06/21 04:20:35;;;;;;;24.83;18.40;;;20.60;99.90;;;;;;5060325;28;20239;-80
2023/06/21 04:23:02;;;;;;;22.63;17.87;;;20.70;99.90;;;;;;5060862;28;20672;-80
2023/06/21 04:25:29;;;;;;;22.67;17.10;;;20.80;99.90;;;;;;5095069;28;20673;-80
2023/06/21 04:27:56;;;;;;;23.87;17.40;;;20.90;99.90;;;;;;5076860;28;20645;-80
2023/06/21 04:30:23;;;;;;;22.27;17.37;;;21.00;99.90;;;;;;5076701;28;20222;-80
2023/06/21 04:32:51;;;;;;;21.40;16.07;;;21.10;99.90;;;;;;5076843;28;20197;-80
2023/06/21 04:35:18;;;;;;;20.73;16.30;;;21.10;99.90;;;;;;5077043;28;20255;-78
2023/06/21 04:37:47;;;;;;;22.87;16.40;;;21.20;99.90;;;;;;5076896;28;20239;-79
2023/06/21 04:40:16;;;;;;;19.63;15.87;;;21.30;99.90;;;;;;5076452;28;20218;-79
2023/06/21 04:43:01;;;;;;;21.00;15.57;;;21.50;99.90;;;;;;5062073;28;20246;-80
2023/06/21 04:45:29;;;;;;;18.57;14.97;;;21.50;99.90;;;;;;5059731;28;20248;-80
2023/06/21 04:47:57;;;;;;;20.93;15.70;;;21.60;99.90;;;;;;5094623;28;20786;-80
2023/06/21 04:50:26;;;;;;;19.90;15.57;;;21.70;99.90;;;;;;5094511;28;20271;-80
2023/06/21 04:52:57;;;;;;;19.67;16.20;;;21.70;99.90;;;;;;5076155;28;20201;-79
2023/06/21 04:55:29;;;;;;;18.87;14.93;;;21.70;99.90;;;;;;5076370;28;20231;-80
2023/06/21 04:57:58;;;;;;;17.87;15.17;;;21.80;99.90;;;;;;5094236;28;20777;-79
2023/06/21 05:00:25;;;;;;;19.10;15.50;;;21.90;99.90;;;;;;5060106;28;20209;-79
2023/06/21 05:02:53;;;;;;;20.53;15.63;;;21.90;99.90;;;;;;5059533;28;20213;-79
2023/06/21 05:05:20;;;;;;;21.50;15.80;;;21.90;99.90;;;;;;5075804;28;20214;-79
2023/06/21 05:07:47;;;;;;;19.27;15.40;;;21.90;99.90;;;;;;5094106;28;20185;-80
2023/06/21 05:10:13;;;;;;;20.33;14.97;;;21.90;99.90;;;;;;5058897;28;20681;-80
2023/06/21 05:12:40;;;;;;;23.70;15.77;;;22.00;99.90;;;;;;5094310;28;20714;-79
2023/06/21 05:15:08;;;;;;;19.97;15.80;;;21.90;99.90;;;;;;5075703;28;20220;-80
2023/06/21 05:17:35;;;;;;;18.90;15.67;;;21.90;99.90;;;;;;5075663;28;20192;-80
2023/06/21 05:20:04;;;;;;;21.10;15.80;;;21.90;99.90;;;;;;5093810;28;20316;-80
2023/06/21 05:22:31;;;;;;;19.17;16.20;;;21.90;99.90;;;;;;5075536;28;20189;-80
2023/06/21 05:25:01;;;;;;;19.47;15.23;;;21.90;99.90;;;;;;5075505;28;20266;-80
2023/06/21 05:27:29;;;;;;;20.03;16.20;;;21.90;99.90;;;;;;5075402;28;20537;-79
2023/06/21 05:29:56;;;;;;;20.33;16.70;;;21.90;99.90;;;;;;5058639;28;20596;-80
2023/06/21 05:32:25;;;;;;;21.97;17.10;;;22.00;99.90;;;;;;5075373;28;20201;-79
2023/06/21 05:34:53;;;;;;;22.00;15.90;;;22.10;99.90;;;;;;5058944;28;20213;-79
2023/06/21 05:37:20;;;;;;;23.70;17.57;;;22.20;99.90;;;;;;5075642;28;20451;-79
2023/06/21 05:39:47;;;;;;;23.43;17.70;;;22.40;99.90;;;;;;5075185;28;20193;-79
2023/06/21 05:42:14;;;;;;;23.77;17.63;;;22.60;99.90;;;;;;5058500;28;20194;-80
2023/06/21 05:44:41;;;;;;;21.27;17.50;;;22.70;99.90;;;;;;5075056;28;20197;-79
2023/06/21 05:47:08;;;;;;;22.30;17.23;;;22.90;99.90;;;;;;5058625;28;20221;-78
2023/06/21 05:49:35;;;;;;;21.20;16.50;;;22.90;99.90;;;;;;5074947;28;20204;-78
2023/06/21 05:52:02;;;;;;;20.77;16.70;;;23.00;99.90;;;;;;5075001;28;20197;-79
2023/06/21 05:54:28;;;;;;;20.70;17.10;;;23.10;99.90;;;;;;5093065;28;20189;-79
2023/06/21 05:56:56;;;;;;;20.67;15.57;;;23.20;99.90;;;;;;5093363;28;20774;-79
2023/06/21 05:59:22;;;;;;;21.30;17.10;;;23.40;99.90;;;;;;5058756;28;20284;-78
2023/06/21 06:01:49;;;;;;;20.02;16.20;;;23.50;99.90;;;;;;5074756;28;20244;-80
2023/06/21 06:04:16;;;;;;;19.30;15.53;;;23.60;99.90;;;;;;5093072;28;20542;-78
2023/06/21 06:06:43;;;;;;;19.85;16.42;;;23.60;99.90;;;;;;5074380;28;20217;-78
2023/06/21 06:09:11;;;;;;;20.92;15.65;;;23.60;99.90;;;;;;5074564;28;20270;-78
2023/06/21 06:11:38;;;;;;;20.48;16.35;;;23.70;99.90;;;;;;5074479;28;20772;-77
2023/06/21 06:14:05;;;;;;;21.17;15.83;;;23.80;99.90;;;;;;5093047;28;20193;-77
2023/06/21 06:16:32;;;;;;;19.60;16.02;;;23.80;99.90;;;;;;5074298;28;20213;-79
2023/06/21 06:18:59;;;;;;;18.60;15.27;;;23.80;99.90;;;;;;5074538;28;20201;-78
2023/06/21 06:21:26;;;;;;;18.77;15.25;;;23.90;99.90;;;;;;5074455;28;20356;-77
2023/06/21 06:23:54;;;;;;;21.15;15.43;;;24.00;99.90;;;;;;5058246;28;20603;-79
2023/06/21 06:26:23;;;;;;;18.02;14.43;;;24.00;99.90;;;;;;5074777;28;20638;-79
2023/06/21 06:28:54;;;;;;;17.42;15.02;;;24.20;99.90;;;;;;5074168;28;20243;-79
2023/06/21 06:31:23;;;;;;;17.83;14.40;;;24.50;99.90;;;;;;5074137;28;20262;-79
2023/06/21 06:33:50;;;;;;;25.65;16.40;;;24.80;99.90;;;;;;5092551;28;20186;-81
2023/06/21 06:36:18;;;;;;;21.15;15.70;;;25.00;99.90;;;;;;5074076;28;20312;-81
2023/06/21 06:38:46;;;;;;;22.95;15.45;;;25.30;99.90;;;;;;5040896;28;20204;-79
2023/06/21 06:41:14;;;;;;;17.55;14.57;;;25.50;99.90;;;;;;5074492;28;20213;-80
2023/06/21 06:43:41;;;;;;;20.63;14.98;;;25.70;99.90;;;;;;5092107;28;20225;-78
2023/06/21 06:46:08;;;;;;;18.83;14.40;;;25.80;99.90;;;;;;5073713;28;20324;-78
2023/06/21 06:48:35;;;;;;;17.17;14.13;;;26.00;99.90;;;;;;5057542;28;20194;-79
2023/06/21 06:51:02;;;;;;;17.17;14.50;;;26.10;99.90;;;;;;5074135;28;20218;-77
2023/06/21 06:53:29;;;;;;;15.45;13.57;;;26.20;99.90;;;;;;5074041;28;20193;-77
2023/06/21 06:55:59;;;;;;;20.45;13.98;;;26.30;99.90;;;;;;5073795;28;20221;-79
2023/06/21 06:58:30;;;;;;;22.40;14.60;;;26.30;99.90;;;;;;5092154;28;20177;-79
2023/06/21 07:00:57;;;;;;;20.27;14.95;;;26.40;99.90;;;;;;5057216;28;20320;-80
2023/06/21 07:03:24;;;;;;;18.63;14.25;;;26.40;99.90;;;;;;5057602;28;20200;-76
2023/06/21 07:05:51;;;;;;;22.00;15.10;;;26.60;99.90;;;;;;5073980;28;20684;-79
2023/06/21 07:08:18;;;;;;;20.25;14.10;;;26.80;99.90;;;;;;5074121;28;20193;-80
2023/06/21 07:10:46;;;;;;;19.33;14.85;;;26.80;99.90;;;;;;5073819;28;20274;-79
2023/06/21 07:13:12;;;;;;;21.50;14.23;;;26.80;99.90;;;;;;5073957;28;20280;-79
2023/06/21 07:15:39;;;;;;;16.30;13.52;;;26.90;99.90;;;;;;5073485;28;20245;-79
2023/06/21 07:18:06;;;;;;;15.32;13.38;;;27.10;99.90;;;;;;5091947;28;20241;-78
2023/06/21 07:20:34;;;;;;;20.30;13.80;;;27.20;99.90;;;;;;5073837;28;20275;-79
2023/06/21 07:23:02;;;;;;;15.82;13.02;;;27.10;99.90;;;;;;5057206;28;20262;-79
2023/06/21 07:25:29;;;;;;;16.33;13.85;;;27.30;99.90;;;;;;5073482;28;20238;-80
2023/06/21 07:27:56;;;;;;;17.27;13.73;;;27.60;99.90;;;;;;5091766;28;20213;-79
2023/06/21 07:30:23;;;;;;;15.35;13.40;;;27.70;99.90;;;;;;5076341;28;20271;-79
2023/06/21 07:32:50;;;;;;;16.92;13.02;;;27.80;99.90;;;;;;5061372;28;20718;-80
2023/06/21 07:35:18;;;;;;;15.23;12.82;;;27.90;99.90;;;;;;5077533;28;20221;-79
2023/06/21 07:37:46;;;;;;;15.45;13.35;;;27.90;99.90;;;;;;5077728;28;20198;-80
2023/06/21 07:40:13;;;;;;;15.38;12.77;;;28.00;99.90;;;;;;5095706;28;20217;-80
2023/06/21 07:42:41;;;;;;;16.35;13.02;;;28.20;99.90;;;;;;5077928;28;20266;-80
2023/06/21 07:45:09;;;;;;;14.88;12.55;;;28.20;99.90;;;;;;5060833;28;20221;-83
2023/06/21 07:47:36;;;;;;;15.07;12.60;;;28.40;99.90;;;;;;5094794;28;20229;-81
2023/06/21 07:50:04;;;;;;;16.85;12.35;;;28.50;99.90;;;;;;5077397;28;20229;-80
2023/06/21 07:52:34;;;;;;;15.02;11.85;;;28.50;99.90;;;;;;5077306;28;20297;-80
2023/06/21 07:55:05;;;;;;;12.95;11.45;;;28.50;99.90;;;;;;5077408;28;20252;-80
2023/06/21 07:57:32;;;;;;;16.10;12.00;;;28.30;99.90;;;;;;5060763;28;20190;-83
2023/06/21 08:00:08;;;;;;;14.57;11.40;;;28.10;99.90;;;;;;5060347;28;20224;-78
2023/06/21 08:02:35;;;;;;;12.98;11.18;;;28.10;99.90;;;;;;5076979;28;20217;-80
2023/06/21 08:05:03;;;;;;;12.48;11.00;;;28.10;99.90;;;;;;5077119;28;20316;-81
2023/06/21 08:07:30;;;;;;;13.27;11.52;;;28.00;99.90;;;;;;5095306;28;20261;-80
2023/06/21 08:09:57;;;;;;;12.48;11.10;;;28.20;99.90;;;;;;5060636;28;20249;-81
2023/06/21 08:12:24;;;;;;;12.90;11.18;;;28.50;99.90;;;;;;5076626;28;20586;-82
2023/06/21 08:14:51;;;;;;;13.93;11.00;;;28.70;99.90;;;;;;5060535;28;20298;-82
2023/06/21 08:17:19;;;;;;;12.68;10.88;;;28.80;99.90;;;;;;5095030;28;20194;-82
2023/06/21 08:19:46;;;;;;;13.60;11.00;;;28.90;99.90;;;;;;5060132;28;20632;-83
2023/06/21 08:22:13;;;;;;;21.67;12.73;;;29.00;99.90;;;;;;5076766;28;20186;-82
2023/06/21 08:24:40;;;;;;;15.43;11.43;;;29.10;99.90;;;;;;5076682;28;20193;-82
2023/06/21 08:27:07;;;;;;;12.30;10.88;;;29.10;99.90;;;;;;5076662;28;20233;-80
2023/06/21 08:29:34;;;;;;;11.88;10.68;;;29.50;99.90;;;;;;5076632;28;20311;-82
2023/06/21 08:32:03;;;;;;;11.93;10.52;;;30.00;99.90;;;;;;5076681;28;20813;-82
2023/06/21 08:34:30;;;;;;;23.52;11.25;;;30.10;99.90;;;;;;5076522;28;20194;-81
2023/06/21 08:36:57;;;;;;;11.70;10.50;;;29.90;99.90;;;;;;5076942;28;20238;-83
2023/06/21 08:39:24;;;;;;;12.50;11.20;;;29.90;99.90;;;;;;5060564;28;20189;-85
2023/06/21 08:41:51;;;;;;;13.73;10.98;;;30.70;99.90;;;;;;5077044;28;20741;-83
2023/06/21 08:44:18;;;;;;;11.25;10.05;;;31.30;99.90;;;;;;5076436;28;20645;-83
2023/06/21 08:46:49;;;;;;;12.13;10.77;;;32.00;99.90;;;;;;5076484;28;20281;-82
2023/06/21 08:49:20;;;;;;;11.55;10.35;;;32.70;99.90;;;;;;5075999;28;20209;-82
2023/06/21 08:51:50;;;;;;;11.88;10.15;;;32.90;96.90;;;;;;5075960;28;20229;-84
2023/06/21 08:54:23;;;;;;;11.68;10.45;;;32.70;95.90;;;;;;5075991;28;20683;-81
2023/06/21 08:56:53;;;;;;;11.93;10.73;;;32.40;95.80;;;;;;5076574;28;20224;-82
2023/06/21 08:59:25;;;;;;;11.88;10.57;;;32.50;95.20;;;;;;5094421;28;20262;-82
2023/06/21 09:02:14;;;;;;;11.95;10.75;;;32.50;95.50;;;;;;5075772;28;20222;-82
2023/06/21 09:04:45;;;;;;;11.25;10.15;;;32.60;94.50;;;;;;5076234;28;20191;-83
2023/06/21 09:07:14;;;;;;;12.77;10.85;;;32.30;95.50;;;;;;5075633;28;20208;-82
2023/06/21 09:09:44;;;;;;;11.55;10.35;;;32.40;95.80;;;;;;5094075;28;20189;-84
2023/06/21 09:12:16;;;;;;;11.20;10.10;;;32.50;94.90;;;;;;5058964;28;20328;-82
2023/06/21 09:14:43;;;;;;;11.43;10.00;;;32.70;94.00;;;;;;5075859;28;20659;-82
2023/06/21 09:17:11;;;;;;;12.82;10.38;;;32.70;93.40;;;;;;5075426;28;20220;-83
2023/06/21 09:19:38;;;;;;;12.30;10.40;;;32.70;93.60;;;;;;5093902;28;20197;-81
2023/06/21 09:22:06;;;;;;;14.05;10.15;;;32.70;93.30;;;;;;5058757;28;20247;-82
2023/06/21 09:24:33;;;;;;;12.13;10.57;;;32.40;94.10;;;;;;5074584;28;20346;-83
2023/06/21 09:27:00;;;;;;;11.82;10.52;;;32.50;94.40;;;;;;5074814;28;20226;-81
2023/06/21 09:29:27;;;;;;;11.98;10.40;;;32.70;93.90;;;;;;5075119;28;20198;-82
2023/06/21 09:31:56;;;;;;;11.65;10.13;;;32.50;91.00;;;;;;5075317;28;20680;-79
2023/06/21 09:34:22;;;;;;;12.93;10.38;;;32.10;90.00;;;;;;5074556;28;20225;-80
2023/06/21 09:36:49;;;;;;;11.20;10.10;;;32.00;90.30;;;;;;5093138;28;20805;-81
2023/06/21 09:39:16;;;;;;;11.73;10.18;;;31.80;90.40;;;;;;5093368;28;20213;-82
2023/06/21 09:41:43;;;;;;;11.15;9.98;;;31.70;90.80;;;;;;5075372;28;20268;-81
2023/06/21 09:44:10;;;;;;;12.18;10.70;;;31.70;91.50;;;;;;5093178;28;20235;-81
2023/06/21 09:46:40;;;;;;;11.55;10.40;;;31.70;91.60;;;;;;5092975;28;20244;-80
2023/06/21 09:49:10;;;;;;;12.23;10.75;;;31.40;91.20;;;;;;5058361;28;20235;-82
2023/06/21 09:51:47;;;;;;;13.23;10.23;;;31.40;91.40;;;;;;5074477;28;20228;-81
2023/06/21 09:54:14;;;;;;;11.57;10.38;;;31.30;91.60;;;;;;5075058;28;20216;-81
2023/06/21 09:56:41;;;;;;;13.52;10.52;;;31.10;91.40;;;;;;5093221;28;20217;-82
2023/06/21 09:59:20;;;;;;;12.75;10.82;;;31.20;91.80;;;;;;5057979;28;20726;-83
2023/06/21 10:01:49;;;;;;;12.02;10.32;;;31.40;90.80;;;;;;5058337;28;20414;-78
2023/06/21 10:04:17;;;;;;;12.57;10.50;;;31.20;90.80;;;;;;5075081;28;20185;-80
2023/06/21 10:06:54;;;;;;;11.63;10.40;;;30.90;91.30;;;;;;5058092;28;20321;-80
2023/06/21 10:09:22;;;;;;;12.30;11.00;;;30.60;90.90;;;;;;5074998;28;20651;-79
2023/06/21 10:11:49;;;;;;;13.10;10.75;;;30.40;91.30;;;;;;5074558;28;20225;-79
2023/06/21 10:14:25;;;;;;;13.25;10.75;;;30.20;92.10;;;;;;5092891;28;20235;-83
2023/06/21 10:16:53;;;;;;;12.18;10.70;;;30.10;92.10;;;;;;5074851;28;20213;-82
2023/06/21 10:19:25;;;;;;;13.50;11.52;;;30.10;92.30;;;;;;5093069;28;20193;-84
2023/06/21 10:22:05;;;;;;;11.30;9.85;;;30.00;92.20;;;;;;5074595;28;20627;-85
2023/06/21 10:24:37;;;;;;;12.85;10.88;;;29.90;91.70;;;;;;5057852;28;20621;-84
2023/06/21 10:27:09;;;;;;;11.68;10.48;;;30.00;92.40;;;;;;5057985;28;20212;-82
2023/06/21 10:29:38;;;;;;;11.98;10.68;;;29.90;92.50;;;;;;5092364;28;20185;-83
2023/06/21 10:32:06;;;;;;;13.68;11.13;;;30.00;92.30;;;;;;5074317;28;20304;-81
2023/06/21 10:34:49;;;;;;;14.70;12.00;;;30.10;92.70;;;;;;5092674;28;20494;-82
2023/06/21 10:37:48;;;;;;;13.63;11.60;;;30.00;92.40;;;;;;5092361;28;20193;-81
2023/06/21 10:40:17;;;;;;;13.82;11.70;;;29.70;92.70;;;;;;5074380;28;20204;-81
2023/06/21 10:42:46;;;;;;;12.35;11.07;;;29.50;92.80;;;;;;5092295;28;20186;-86
2023/06/21 10:45:13;;;;;;;14.15;11.52;;;29.50;93.50;;;;;;5057606;28;20225;-81
2023/06/21 10:47:40;;;;;;;15.23;12.10;;;29.40;93.50;;;;;;5073923;28;20597;-87
2023/06/21 10:50:09;;;;;;;13.85;11.32;;;29.30;93.90;;;;;;5074630;28;20290;-85
2023/06/21 10:52:37;;;;;;;13.90;11.32;;;29.20;94.30;;;;;;5092249;28;20209;-86
2023/06/21 10:55:05;;;;;;;15.23;11.57;;;29.00;94.40;;;;;;5074255;28;20233;-85
2023/06/21 10:57:34;;;;;;;14.25;11.73;;;28.90;94.80;;;;;;5057906;28;20259;-85
2023/06/21 11:00:04;;;;;;;14.80;11.70;;;28.70;95.10;;;;;;5074704;28;20289;-84
2023/06/21 11:02:31;;;;;;;16.17;12.73;;;28.70;95.50;;;;;;5074361;28;20215;-83
2023/06/21 11:05:19;;;;;;;12.98;11.57;;;28.60;95.50;;;;;;5096443;28;20614;-84
2023/06/21 11:07:55;;;;;;;14.48;12.48;;;28.40;96.00;;;;;;5078550;28;20220;-81
2023/06/21 11:10:29;;;;;;;13.52;11.57;;;28.50;96.40;;;;;;5096483;28;20282;-83
2023/06/21 11:12:57;;;;;;;14.38;12.25;;;28.40;96.90;;;;;;5078389;28;20327;-84
2023/06/21 11:15:25;;;;;;;14.75;12.13;;;28.30;97.30;;;;;;5078333;28;20210;-81
2023/06/21 11:18:09;;;;;;;13.13;11.73;;;28.40;98.00;;;;;;5078277;28;20189;-83
2023/06/21 11:20:47;;;;;;;13.88;12.02;;;28.30;98.40;;;;;;5077970;28;20206;-81
2023/06/21 11:23:19;;;;;;;17.55;11.32;;;28.20;98.10;;;;;;5096264;28;20193;-81
2023/06/21 11:26:15;;;;;;;13.90;11.60;;;28.20;98.70;;;;;;5096571;28;20225;-82
2023/06/21 11:28:47;;;;;;;13.88;12.15;;;28.20;99.40;;;;;;5061433;28;20204;-85
2023/06/21 11:31:17;;;;;;;14.82;11.85;;;28.00;99.90;;;;;;5077782;28;20312;-84
2023/06/21 11:33:57;;;;;;;17.23;12.40;;;27.80;99.90;;;;;;5078014;28;20207;-83
2023/06/21 11:36:29;;;;;;;16.42;12.80;;;27.80;99.90;;;;;;5078012;28;20213;-81
2023/06/21 11:39:05;;;;;;;16.63;12.80;;;27.80;99.90;;;;;;5060752;28;20689;-86
2023/06/21 11:41:43;;;;;;;16.08;12.82;;;27.60;99.90;;;;;;5077675;28;20220;-86
2023/06/21 11:44:19;;;;;;;15.40;12.52;;;27.20;99.90;;;;;;5096002;28;20217;-85
2023/06/21 11:46:49;;;;;;;18.90;13.82;;;26.80;99.90;;;;;;5095433;28;20221;-86
2023/06/21 11:49:16;;;;;;;17.67;13.68;;;26.50;99.90;;;;;;5095328;28;20209;-83
2023/06/21 11:52:03;;;;;;;16.10;12.98;;;26.30;99.90;;;;;;5077068;28;20247;-85
2023/06/21 11:54:35;;;;;;;18.10;14.27;;;26.10;99.90;;;;;;5095539;28;20190;-86
2023/06/21 11:57:09;;;;;;;19.98;14.95;;;26.00;99.90;;;;;;5077432;28;20258;-83
2023/06/21 11:59:36;;;;;;;16.92;13.82;;;25.90;99.90;;;;;;5077056;28;20289;-83
2023/06/21 12:02:15;;;;;;;16.27;13.35;;;25.80;99.90;;;;;;5077145;28;20288;-85
2023/06/21 12:04:43;;;;;;;17.08;14.43;;;25.60;99.90;;;;;;5077070;28;20566;-84
2023/06/21 12:07:10;;;;;;;18.08;14.98;;;25.40;99.90;;;;;;5076065;28;20462;-83
2023/06/21 12:09:38;;;;;;;18.20;14.80;;;25.30;99.90;;;;;;5060349;28;20197;-87
2023/06/21 12:12:07;;;;;;;20.75;14.43;;;25.20;99.90;;;;;;5095608;28;20279;-87
2023/06/21 12:14:35;;;;;;;26.17;15.75;;;25.20;99.90;;;;;;5060119;28;20275;-87
2023/06/21 12:17:05;;;;;;;18.70;15.02;;;25.10;99.90;;;;;;5060328;28;20199;-87
2023/06/21 12:19:32;;;;;;;18.60;14.70;;;25.10;99.90;;;;;;5076655;28;20317;-87
2023/06/21 12:22:02;;;;;;;18.25;13.63;;;25.10;99.90;;;;;;5076648;28;20772;-87
2023/06/21 12:24:30;;;;;;;18.33;13.95;;;25.10;99.90;;;;;;5060108;28;20272;-84
2023/06/21 12:27:00;;;;;;;16.33;13.25;;;25.10;99.90;;;;;;5076561;28;20657;-84
2023/06/21 12:29:28;;;;;;;15.73;12.82;;;25.20;99.90;;;;;;5076857;28;20243;-84
2023/06/21 12:31:58;;;;;;;14.90;12.60;;;25.30;99.90;;;;;;5076170;28;20217;-85
2023/06/21 12:34:25;;;;;;;17.15;13.50;;;25.40;99.90;;;;;;5076362;28;20189;-85
2023/06/21 12:36:55;;;;;;;15.73;12.70;;;25.50;99.90;;;;;;5076162;28;20221;-82
2023/06/21 12:39:22;;;;;;;16.55;13.00;;;25.70;99.90;;;;;;5059626;28;20660;-83